Time;durP1;ratioP1;P1;durP2;ratioP2;P2;SDS_P1;SDS_P2;PMS_P1;PMS_P2;Temp;Humidity;BMP_temperature;BMP_pressure;BME280_temperature;BME280_humidity;BME280_pressure;Samples;Min_cycle;Max_cycle;Signal;HPM_P1;HPM_P2
2023/10/04 00:00:20;;;;;;;8.20;5.47;;;23.80;48.90;;;;;;349659;28;967;-57
2023/10/04 00:00:31;;;;;;;8.55;5.28;;;23.80;48.90;;;;;;349538;28;1067;-57
2023/10/04 00:00:42;;;;;;;8.82;5.28;;;23.80;49.00;;;;;;349630;28;1059;-56
2023/10/04 00:00:53;;;;;;;9.32;5.40;;;23.80;49.00;;;;;;349544;28;1075;-57
2023/10/04 00:01:04;;;;;;;11.00;5.40;;;23.80;49.00;;;;;;349626;28;1134;-56
2023/10/04 00:01:16;;;;;;;11.18;5.50;;;23.80;49.00;;;;;;349613;28;1012;-57
2023/10/04 00:01:27;;;;;;;9.52;5.53;;;23.80;49.00;;;;;;349610;28;1106;-56
2023/10/04 00:01:38;;;;;;;9.82;5.50;;;23.80;49.00;;;;;;349674;28;1082;-57
2023/10/04 00:01:50;;;;;;;8.98;5.50;;;23.80;49.00;;;;;;349546;28;1010;-57
2023/10/04 00:02:01;;;;;;;9.30;5.63;;;23.80;49.00;;;;;;349636;28;773;-56
2023/10/04 00:02:12;;;;;;;8.45;5.63;;;23.80;49.00;;;;;;349605;28;1272;-57
2023/10/04 00:02:23;;;;;;;7.53;5.47;;;23.80;49.00;;;;;;349570;28;1178;-56
2023/10/04 00:02:34;;;;;;;8.30;5.35;;;23.80;49.00;;;;;;349595;28;1062;-57
2023/10/04 00:02:48;;;;;;;9.13;5.25;;;23.80;49.00;;;;;;349587;28;937;-56
2023/10/04 00:03:00;;;;;;;8.95;5.25;;;23.80;49.00;;;;;;349529;28;1614;-55
2023/10/04 00:03:11;;;;;;;9.90;5.53;;;23.80;49.00;;;;;;349573;28;1115;-57
2023/10/04 00:03:22;;;;;;;9.88;5.55;;;23.80;49.00;;;;;;349679;28;803;-57
2023/10/04 00:03:32;;;;;;;8.32;5.25;;;23.80;49.00;;;;;;349683;28;1035;-57
2023/10/04 00:03:44;;;;;;;8.23;5.30;;;23.80;49.00;;;;;;349551;28;1015;-57
2023/10/04 00:03:54;;;;;;;8.82;5.47;;;23.80;49.00;;;;;;349629;28;999;-58
2023/10/04 00:04:05;;;;;;;9.35;5.68;;;23.80;49.00;;;;;;349556;28;1458;-57
2023/10/04 00:04:18;;;;;;;8.82;5.30;;;23.80;49.00;;;;;;349498;28;1208;-57
2023/10/04 00:04:30;;;;;;;9.13;5.00;;;23.80;49.10;;;;;;349616;28;1040;-57
2023/10/04 00:04:43;;;;;;;9.40;5.43;;;23.80;49.00;;;;;;349574;28;1138;-58
2023/10/04 00:04:55;;;;;;;10.48;5.63;;;23.80;49.00;;;;;;349557;28;1114;-56
2023/10/04 00:05:06;;;;;;;9.27;5.50;;;23.80;49.00;;;;;;349625;28;1051;-56
2023/10/04 00:05:19;;;;;;;8.25;5.30;;;23.80;49.00;;;;;;349582;28;1046;-58
2023/10/04 00:05:30;;;;;;;8.23;5.32;;;23.80;49.00;;;;;;349526;28;1249;-57
2023/10/04 00:05:42;;;;;;;7.53;5.20;;;23.70;49.10;;;;;;349626;28;1047;-55
2023/10/04 00:05:53;;;;;;;7.38;5.05;;;23.80;49.30;;;;;;349641;28;1039;-57
2023/10/04 00:06:04;;;;;;;9.55;5.22;;;23.70;49.30;;;;;;349531;28;1058;-57
2023/10/04 00:06:17;;;;;;;9.63;5.38;;;23.80;49.30;;;;;;349545;28;1087;-58
2023/10/04 00:06:28;;;;;;;7.88;5.18;;;23.70;49.30;;;;;;349591;28;1043;-57
2023/10/04 00:06:41;;;;;;;8.80;5.18;;;23.80;49.30;;;;;;349565;28;1416;-56
2023/10/04 00:06:51;;;;;;;9.73;5.38;;;23.70;49.20;;;;;;349626;28;948;-56
2023/10/04 00:07:05;;;;;;;8.95;5.40;;;23.70;49.20;;;;;;349589;28;1007;-57
2023/10/04 00:07:15;;;;;;;9.38;5.24;;;23.80;49.20;;;;;;349482;28;995;-57
2023/10/04 00:07:28;;;;;;;9.67;5.43;;;23.80;49.20;;;;;;349660;28;1051;-57
2023/10/04 00:07:39;;;;;;;9.70;5.30;;;23.70;49.20;;;;;;349576;28;1361;-57
2023/10/04 00:07:52;;;;;;;9.57;5.15;;;23.70;49.20;;;;;;349551;28;939;-57
2023/10/04 00:08:03;;;;;;;9.85;5.10;;;23.70;49.20;;;;;;349672;28;892;-57
2023/10/04 00:08:14;;;;;;;10.65;5.25;;;23.70;49.20;;;;;;349604;28;810;-57
2023/10/04 00:08:25;;;;;;;10.15;5.40;;;23.80;49.20;;;;;;349539;28;1109;-57
2023/10/04 00:08:36;;;;;;;9.00;5.30;;;23.80;49.20;;;;;;349544;28;1095;-56
2023/10/04 00:08:47;;;;;;;8.93;5.30;;;23.80;49.20;;;;;;349600;28;1611;-57
2023/10/04 00:08:59;;;;;;;9.93;5.45;;;23.80;49.10;;;;;;349664;28;896;-56
2023/10/04 00:09:10;;;;;;;9.48;5.50;;;23.80;49.10;;;;;;349548;28;1013;-57
2023/10/04 00:09:21;;;;;;;7.68;5.43;;;23.80;49.10;;;;;;349622;28;1015;-57
2023/10/04 00:09:33;;;;;;;6.68;5.25;;;23.80;49.10;;;;;;349621;28;1003;-58
2023/10/04 00:09:43;;;;;;;6.95;5.35;;;23.80;49.10;;;;;;349570;28;1221;-57
2023/10/04 00:09:54;;;;;;;6.53;5.10;;;23.80;49.10;;;;;;349602;28;1001;-57
2023/10/04 00:10:05;;;;;;;7.43;4.75;;;23.80;49.20;;;;;;349706;28;737;-56
2023/10/04 00:10:19;;;;;;;8.10;4.75;;;23.80;49.20;;;;;;349649;28;1478;-58
2023/10/04 00:10:30;;;;;;;13.27;5.35;;;23.80;49.20;;;;;;349607;28;1050;-57
2023/10/04 00:10:40;;;;;;;11.82;5.57;;;23.80;49.20;;;;;;349517;28;940;-56
2023/10/04 00:10:51;;;;;;;11.77;5.40;;;23.80;49.20;;;;;;349630;28;956;-57
2023/10/04 00:11:03;;;;;;;8.13;5.10;;;23.80;49.20;;;;;;349568;28;947;-56
2023/10/04 00:11:14;;;;;;;8.35;4.88;;;23.70;49.20;;;;;;349579;28;861;-57
2023/10/04 00:11:30;;;;;;;8.68;5.15;;;23.80;49.20;;;;;;349848;28;1346;-58
2023/10/04 00:11:41;;;;;;;9.75;5.50;;;23.70;49.20;;;;;;349577;28;1051;-57
2023/10/04 00:11:51;;;;;;;10.52;5.32;;;23.70;49.20;;;;;;349538;28;1631;-56
2023/10/04 00:12:03;;;;;;;8.23;5.15;;;23.80;49.20;;;;;;349617;28;907;-57
2023/10/04 00:12:13;;;;;;;7.75;5.25;;;23.70;49.20;;;;;;349484;28;1186;-58
2023/10/04 00:12:24;;;;;;;7.07;5.18;;;23.80;49.20;;;;;;349612;28;1258;-56
2023/10/04 00:12:35;;;;;;;8.33;5.40;;;23.70;49.10;;;;;;349605;28;952;-57
2023/10/04 00:12:46;;;;;;;8.07;5.47;;;23.80;49.20;;;;;;349573;28;1074;-56
2023/10/04 00:12:57;;;;;;;8.68;5.65;;;23.70;49.10;;;;;;349609;28;1772;-57
2023/10/04 00:13:07;;;;;;;8.10;5.45;;;23.70;49.20;;;;;;349462;28;1993;-56
2023/10/04 00:13:18;;;;;;;7.65;5.45;;;23.80;49.20;;;;;;349638;28;1039;-57
2023/10/04 00:13:29;;;;;;;9.02;5.47;;;23.70;49.20;;;;;;349618;28;1856;-57
2023/10/04 00:13:43;;;;;;;10.07;5.67;;;23.80;49.20;;;;;;349616;28;979;-57
2023/10/04 00:13:55;;;;;;;9.77;5.53;;;23.80;49.20;;;;;;349549;28;1012;-57
2023/10/04 00:14:07;;;;;;;9.48;5.68;;;23.80;49.30;;;;;;349564;28;1343;-56
2023/10/04 00:14:17;;;;;;;9.40;5.70;;;23.80;49.30;;;;;;349580;28;853;-56
2023/10/04 00:14:28;;;;;;;8.32;5.90;;;23.70;49.30;;;;;;349626;28;1023;-57
2023/10/04 00:14:39;;;;;;;7.78;5.70;;;23.70;49.30;;;;;;349500;28;1102;-59
2023/10/04 00:14:49;;;;;;;8.93;5.73;;;23.80;49.30;;;;;;349647;28;896;-58
2023/10/04 00:15:00;;;;;;;9.83;5.40;;;23.70;49.30;;;;;;349638;28;984;-57
2023/10/04 00:15:13;;;;;;;9.82;5.38;;;23.80;49.40;;;;;;349627;28;1031;-56
2023/10/04 00:15:27;;;;;;;8.10;5.20;;;23.70;49.40;;;;;;349494;28;991;-56
2023/10/04 00:15:38;;;;;;;7.45;5.47;;;23.70;49.40;;;;;;349600;28;1043;-56
2023/10/04 00:15:49;;;;;;;9.27;5.70;;;23.80;49.40;;;;;;349603;28;1003;-57
2023/10/04 00:16:01;;;;;;;10.05;5.68;;;23.80;49.40;;;;;;349498;28;1185;-56
2023/10/04 00:16:13;;;;;;;8.88;5.43;;;23.80;49.30;;;;;;349602;28;1047;-57
2023/10/04 00:16:24;;;;;;;8.55;5.30;;;23.70;49.30;;;;;;349619;28;1047;-56
2023/10/04 00:16:34;;;;;;;7.80;5.40;;;23.70;49.30;;;;;;349538;28;1649;-56
2023/10/04 00:16:45;;;;;;;7.77;5.47;;;23.80;49.30;;;;;;349626;28;1026;-57
2023/10/04 00:16:56;;;;;;;8.23;5.50;;;23.70;49.30;;;;;;349645;28;1067;-57
2023/10/04 00:17:07;;;;;;;9.30;5.50;;;23.70;49.30;;;;;;349631;28;833;-58
2023/10/04 00:17:17;;;;;;;10.93;5.50;;;23.80;49.40;;;;;;349527;28;1046;-57
2023/10/04 00:17:28;;;;;;;10.83;5.60;;;23.80;49.30;;;;;;349572;28;1523;-56
2023/10/04 00:17:42;;;;;;;10.50;5.70;;;23.70;49.30;;;;;;349660;28;825;-57
2023/10/04 00:17:53;;;;;;;8.18;5.50;;;23.80;49.30;;;;;;349514;28;948;-57
2023/10/04 00:18:04;;;;;;;8.45;5.50;;;23.80;49.30;;;;;;349588;28;1918;-57
2023/10/04 00:18:15;;;;;;;9.57;5.57;;;23.80;49.30;;;;;;349552;28;1194;-57
2023/10/04 00:18:27;;;;;;;10.43;5.63;;;23.80;49.30;;;;;;349570;28;1401;-56
2023/10/04 00:18:38;;;;;;;11.75;5.60;;;23.70;49.30;;;;;;349511;28;1033;-56
2023/10/04 00:18:49;;;;;;;10.60;5.60;;;23.80;49.30;;;;;;349594;28;1071;-57
2023/10/04 00:19:01;;;;;;;11.63;5.75;;;23.80;49.30;;;;;;349620;28;774;-58
2023/10/04 00:19:14;;;;;;;9.38;5.78;;;23.80;49.30;;;;;;349651;28;831;-57
2023/10/04 00:19:25;;;;;;;9.30;5.63;;;23.80;49.30;;;;;;349512;28;872;-57
2023/10/04 00:19:36;;;;;;;9.00;5.60;;;23.80;49.30;;;;;;349602;28;1086;-57
2023/10/04 00:19:47;;;;;;;9.63;5.40;;;23.80;49.30;;;;;;349610;28;1083;-57
2023/10/04 00:19:58;;;;;;;12.15;5.57;;;23.80;49.30;;;;;;349634;28;861;-57
2023/10/04 00:20:14;;;;;;;13.07;5.57;;;23.80;49.40;;;;;;349555;28;996;-57
2023/10/04 00:20:31;;;;;;;9.85;5.50;;;23.80;49.40;;;;;;349629;28;1027;-57
2023/10/04 00:20:43;;;;;;;11.02;5.45;;;23.70;49.40;;;;;;349643;28;1059;-58
2023/10/04 00:20:55;;;;;;;10.68;5.20;;;23.80;49.40;;;;;;349560;28;1114;-57
2023/10/04 00:21:10;;;;;;;8.40;4.88;;;23.70;49.40;;;;;;349600;28;1039;-57
2023/10/04 00:21:21;;;;;;;7.82;5.03;;;23.70;49.40;;;;;;349639;28;1139;-56
2023/10/04 00:21:33;;;;;;;8.30;5.20;;;23.80;49.40;;;;;;349561;28;953;-57
2023/10/04 00:21:44;;;;;;;8.70;5.28;;;23.80;49.40;;;;;;349639;28;869;-57
2023/10/04 00:21:54;;;;;;;9.37;5.27;;;23.80;49.40;;;;;;349626;28;1045;-56
2023/10/04 00:22:05;;;;;;;8.52;5.30;;;23.80;49.30;;;;;;349536;28;1118;-57
2023/10/04 00:22:18;;;;;;;7.78;5.07;;;23.80;49.30;;;;;;349547;28;940;-57
2023/10/04 00:22:29;;;;;;;8.18;5.38;;;23.80;49.30;;;;;;349644;28;1965;-57
2023/10/04 00:22:40;;;;;;;8.15;5.47;;;23.80;49.30;;;;;;349608;28;876;-57
2023/10/04 00:22:52;;;;;;;8.45;5.50;;;23.80;49.40;;;;;;349562;28;1127;-57
2023/10/04 00:23:04;;;;;;;7.93;5.22;;;23.80;49.30;;;;;;349498;28;1114;-57
2023/10/04 00:23:15;;;;;;;8.90;5.40;;;23.80;49.30;;;;;;349567;28;1071;-57
2023/10/04 00:23:26;;;;;;;9.95;5.55;;;23.80;49.30;;;;;;349613;28;968;-57
2023/10/04 00:23:38;;;;;;;8.73;5.40;;;23.80;49.30;;;;;;349675;28;909;-56
2023/10/04 00:23:49;;;;;;;7.90;5.18;;;23.80;49.20;;;;;;349501;28;988;-56
2023/10/04 00:24:00;;;;;;;8.45;5.47;;;23.80;49.20;;;;;;349607;28;1035;-57
2023/10/04 00:24:11;;;;;;;9.23;5.53;;;23.80;49.30;;;;;;349649;28;867;-56
2023/10/04 00:24:22;;;;;;;8.32;5.53;;;23.80;49.30;;;;;;349631;28;968;-58
2023/10/04 00:24:33;;;;;;;8.38;5.22;;;23.80;49.30;;;;;;349523;28;1110;-56
2023/10/04 00:24:44;;;;;;;8.25;5.22;;;23.80;49.30;;;;;;349608;28;960;-56
2023/10/04 00:24:55;;;;;;;8.55;5.40;;;23.80;49.20;;;;;;349561;28;984;-57
2023/10/04 00:25:11;;;;;;;7.72;5.57;;;23.80;49.20;;;;;;349583;28;1186;-57
2023/10/04 00:25:23;;;;;;;8.02;5.72;;;23.80;49.20;;;;;;349553;28;1295;-56
2023/10/04 00:25:34;;;;;;;9.18;5.47;;;23.80;49.20;;;;;;349611;28;876;-57
2023/10/04 00:25:45;;;;;;;9.85;5.40;;;23.80;49.30;;;;;;349581;28;860;-57
2023/10/04 00:25:55;;;;;;;11.10;5.32;;;23.80;49.20;;;;;;349639;28;1074;-56
2023/10/04 00:26:07;;;;;;;9.82;5.18;;;23.80;49.40;;;;;;349487;28;1114;-57
2023/10/04 00:26:18;;;;;;;7.93;4.97;;;23.80;49.50;;;;;;349532;28;1604;-57
2023/10/04 00:26:30;;;;;;;8.73;5.20;;;23.80;49.50;;;;;;349613;28;1154;-58
2023/10/04 00:26:42;;;;;;;10.77;5.35;;;23.80;49.50;;;;;;349569;28;1126;-57
2023/10/04 00:26:52;;;;;;;11.05;5.50;;;23.80;49.50;;;;;;349544;28;1032;-57
2023/10/04 00:27:04;;;;;;;9.85;5.40;;;23.80;49.50;;;;;;349596;28;1075;-57
2023/10/04 00:27:15;;;;;;;8.35;5.10;;;23.80;49.50;;;;;;349541;28;1782;-57
2023/10/04 00:27:26;;;;;;;8.23;5.03;;;23.80;49.50;;;;;;349484;28;1189;-58
2023/10/04 00:27:41;;;;;;;8.30;5.13;;;23.80;49.50;;;;;;349533;28;1359;-56
2023/10/04 00:27:56;;;;;;;8.80;5.35;;;23.80;49.50;;;;;;349556;28;1000;-56
2023/10/04 00:28:07;;;;;;;9.43;5.30;;;23.80;49.60;;;;;;349541;28;1016;-58
2023/10/04 00:28:17;;;;;;;8.52;5.05;;;23.80;49.50;;;;;;349582;28;1165;-56
2023/10/04 00:28:29;;;;;;;9.63;5.22;;;23.80;49.50;;;;;;349572;28;1069;-57
2023/10/04 00:28:39;;;;;;;7.93;5.28;;;23.80;49.50;;;;;;349578;28;964;-57
2023/10/04 00:28:50;;;;;;;7.13;5.10;;;23.80;49.50;;;;;;349610;28;1003;-57
2023/10/04 00:29:01;;;;;;;6.18;5.00;;;23.80;49.50;;;;;;349625;28;1015;-57
2023/10/04 00:29:13;;;;;;;7.00;4.97;;;23.70;49.50;;;;;;349451;28;1893;-56
2023/10/04 00:29:25;;;;;;;8.98;5.28;;;23.80;49.50;;;;;;349564;28;1146;-57
2023/10/04 00:29:35;;;;;;;9.02;5.30;;;23.80;49.50;;;;;;349555;28;1123;-56
2023/10/04 00:29:46;;;;;;;9.43;5.47;;;23.70;49.50;;;;;;349563;28;1171;-57
2023/10/04 00:29:57;;;;;;;8.60;5.35;;;23.70;49.50;;;;;;349520;28;1047;-57
2023/10/04 00:30:12;;;;;;;8.70;5.47;;;23.80;49.50;;;;;;349586;28;1169;-57
2023/10/04 00:30:26;;;;;;;11.18;5.50;;;23.80;49.50;;;;;;349581;28;1031;-58
2023/10/04 00:30:37;;;;;;;11.60;5.43;;;23.80;49.50;;;;;;349506;28;1098;-57
2023/10/04 00:30:48;;;;;;;10.88;5.50;;;23.70;49.50;;;;;;349567;28;1003;-57
2023/10/04 00:30:59;;;;;;;8.93;5.37;;;23.80;49.50;;;;;;349614;28;815;-56
2023/10/04 00:31:10;;;;;;;9.25;5.50;;;23.70;49.50;;;;;;349570;28;1901;-57
2023/10/04 00:31:21;;;;;;;9.30;5.65;;;23.70;49.60;;;;;;349514;28;1066;-57
2023/10/04 00:31:32;;;;;;;8.57;5.55;;;23.80;49.60;;;;;;349581;28;1008;-56
2023/10/04 00:31:43;;;;;;;8.18;5.47;;;23.70;49.60;;;;;;349577;28;1039;-57
2023/10/04 00:31:54;;;;;;;7.82;5.22;;;23.70;49.50;;;;;;349549;28;1099;-58
2023/10/04 00:32:04;;;;;;;8.35;5.00;;;23.80;49.60;;;;;;349447;28;1058;-57
2023/10/04 00:32:15;;;;;;;9.20;5.00;;;23.70;49.60;;;;;;349405;28;1302;-57
2023/10/04 00:32:27;;;;;;;9.43;4.97;;;23.80;49.60;;;;;;349452;28;895;-57
2023/10/04 00:32:38;;;;;;;7.90;5.07;;;23.80;49.60;;;;;;349302;28;1309;-57
2023/10/04 00:32:48;;;;;;;7.05;5.00;;;23.70;49.60;;;;;;349477;28;968;-57
2023/10/04 00:33:04;;;;;;;7.10;5.20;;;23.70;49.60;;;;;;349415;28;1158;-56
2023/10/04 00:33:15;;;;;;;8.13;5.35;;;23.70;49.50;;;;;;349402;28;1902;-58
2023/10/04 00:33:26;;;;;;;8.27;5.40;;;23.70;49.60;;;;;;349430;28;879;-56
2023/10/04 00:33:38;;;;;;;9.07;5.50;;;23.80;49.60;;;;;;349487;28;1100;-57
2023/10/04 00:33:52;;;;;;;9.25;5.45;;;23.70;49.60;;;;;;349527;28;1054;-56
2023/10/04 00:34:03;;;;;;;7.95;5.28;;;23.80;49.60;;;;;;349537;28;988;-56
2023/10/04 00:34:14;;;;;;;7.43;5.30;;;23.70;49.50;;;;;;349483;28;1181;-56
2023/10/04 00:34:25;;;;;;;8.43;5.40;;;23.70;49.50;;;;;;349546;28;1356;-57
2023/10/04 00:34:39;;;;;;;9.43;5.28;;;23.70;49.60;;;;;;349653;28;1019;-57
2023/10/04 00:34:51;;;;;;;8.57;5.05;;;23.70;49.60;;;;;;349540;28;1178;-60
2023/10/04 00:35:03;;;;;;;7.85;5.30;;;23.70;49.50;;;;;;349523;28;1043;-57
2023/10/04 00:35:17;;;;;;;7.85;5.47;;;23.70;49.60;;;;;;349573;28;1042;-56
2023/10/04 00:35:28;;;;;;;9.02;5.50;;;23.70;49.60;;;;;;349565;28;1103;-56
2023/10/04 00:35:40;;;;;;;10.40;5.50;;;23.80;49.60;;;;;;349655;28;1058;-56
2023/10/04 00:35:51;;;;;;;10.52;5.50;;;23.70;49.60;;;;;;349555;28;983;-57
2023/10/04 00:36:05;;;;;;;9.23;5.22;;;23.80;49.60;;;;;;349608;28;924;-56
2023/10/04 00:36:20;;;;;;;8.93;5.28;;;23.80;49.60;;;;;;349526;28;975;-56
2023/10/04 00:36:33;;;;;;;8.88;5.40;;;23.80;49.60;;;;;;349503;28;1197;-58
2023/10/04 00:36:44;;;;;;;7.63;5.35;;;23.80;49.60;;;;;;349577;28;984;-56
2023/10/04 00:36:56;;;;;;;9.30;5.40;;;23.70;49.60;;;;;;349601;28;805;-57
2023/10/04 00:37:07;;;;;;;10.05;5.32;;;23.70;49.60;;;;;;349566;28;1130;-57
2023/10/04 00:37:18;;;;;;;10.20;5.30;;;23.70;49.60;;;;;;349480;28;1193;-56
2023/10/04 00:37:31;;;;;;;8.20;5.38;;;23.70;49.50;;;;;;349630;28;872;-59
2023/10/04 00:37:42;;;;;;;8.63;5.38;;;23.80;49.60;;;;;;349596;28;877;-57
2023/10/04 00:37:57;;;;;;;8.82;5.35;;;23.80;49.60;;;;;;349568;28;1036;-56
2023/10/04 00:38:09;;;;;;;9.07;5.45;;;23.70;49.50;;;;;;349545;28;1124;-56
2023/10/04 00:38:20;;;;;;;9.02;5.40;;;23.70;49.50;;;;;;349594;28;900;-56
2023/10/04 00:38:31;;;;;;;9.13;5.23;;;23.80;49.60;;;;;;349605;28;841;-56
2023/10/04 00:38:41;;;;;;;10.27;5.20;;;23.70;49.60;;;;;;349656;28;865;-56
2023/10/04 00:38:53;;;;;;;9.73;5.28;;;23.70;49.70;;;;;;349557;28;883;-57
2023/10/04 00:39:06;;;;;;;9.80;5.40;;;23.70;49.70;;;;;;349612;28;1082;-57
2023/10/04 00:39:18;;;;;;;9.70;5.63;;;23.80;49.70;;;;;;349622;28;1802;-60
2023/10/04 00:39:28;;;;;;;9.57;5.60;;;23.70;49.70;;;;;;349642;28;1059;-57
2023/10/04 00:39:39;;;;;;;9.57;5.53;;;23.70;49.60;;;;;;349575;28;952;-58
2023/10/04 00:39:50;;;;;;;10.10;5.20;;;23.70;49.60;;;;;;349621;28;1765;-56
2023/10/04 00:40:01;;;;;;;9.10;5.20;;;23.80;49.70;;;;;;349651;28;714;-57
2023/10/04 00:40:14;;;;;;;8.75;5.18;;;23.70;49.60;;;;;;349641;28;987;-57
2023/10/04 00:40:27;;;;;;;8.35;5.10;;;23.70;49.70;;;;;;349470;28;1225;-57
2023/10/04 00:40:38;;;;;;;10.15;5.50;;;23.70;49.60;;;;;;349840;28;1082;-57
2023/10/04 00:40:50;;;;;;;9.27;5.47;;;23.70;49.60;;;;;;349845;28;768;-57
2023/10/04 00:41:00;;;;;;;9.30;5.25;;;23.70;49.60;;;;;;349876;28;1106;-57
2023/10/04 00:41:11;;;;;;;8.32;4.90;;;23.70;49.70;;;;;;349845;28;942;-58
2023/10/04 00:41:22;;;;;;;10.07;4.90;;;23.70;49.60;;;;;;349844;28;915;-58
2023/10/04 00:41:34;;;;;;;10.35;5.30;;;23.70;49.60;;;;;;349836;28;979;-57
2023/10/04 00:41:46;;;;;;;10.52;5.82;;;23.70;49.60;;;;;;349812;28;1154;-57
2023/10/04 00:41:57;;;;;;;9.95;5.90;;;23.70;49.60;;;;;;349805;28;1022;-57
2023/10/04 00:42:09;;;;;;;9.27;5.53;;;23.70;49.60;;;;;;349822;28;979;-56
2023/10/04 00:42:20;;;;;;;8.34;5.60;;;23.70;49.60;;;;;;349857;28;1058;-57
2023/10/04 00:42:31;;;;;;;8.70;5.73;;;23.70;49.60;;;;;;349838;28;728;-57
2023/10/04 00:42:41;;;;;;;8.85;5.43;;;23.70;49.60;;;;;;349780;28;971;-56
2023/10/04 00:42:55;;;;;;;9.02;5.18;;;23.70;49.60;;;;;;349852;28;1035;-56
2023/10/04 00:43:10;;;;;;;9.15;5.30;;;23.70;49.60;;;;;;349895;28;829;-57
2023/10/04 00:43:20;;;;;;;8.63;5.43;;;23.70;49.60;;;;;;349811;28;962;-58
2023/10/04 00:43:32;;;;;;;8.38;5.53;;;23.70;49.70;;;;;;349798;28;1129;-57
2023/10/04 00:43:50;;;;;;;8.27;5.47;;;23.70;49.70;;;;;;349801;28;1851;-57
2023/10/04 00:44:01;;;;;;;8.65;5.38;;;23.70;49.70;;;;;;349747;28;948;-57
2023/10/04 00:44:12;;;;;;;10.00;5.50;;;23.70;49.70;;;;;;349854;28;1035;-58
2023/10/04 00:44:23;;;;;;;8.93;5.35;;;23.70;49.70;;;;;;349841;28;1086;-56
2023/10/04 00:44:35;;;;;;;9.63;5.50;;;23.70;49.70;;;;;;349731;28;1106;-57
2023/10/04 00:44:47;;;;;;;10.48;5.55;;;23.70;49.70;;;;;;349824;28;927;-56
2023/10/04 00:44:59;;;;;;;10.98;5.72;;;23.70;49.70;;;;;;349895;28;865;-58
2023/10/04 00:45:13;;;;;;;9.80;5.53;;;23.70;49.70;;;;;;349726;28;1867;-58
2023/10/04 00:45:24;;;;;;;7.68;5.30;;;23.70;49.70;;;;;;349793;28;1004;-57
2023/10/04 00:45:35;;;;;;;7.85;5.30;;;23.60;49.70;;;;;;349867;28;1004;-57
2023/10/04 00:45:49;;;;;;;8.20;5.10;;;23.70;49.70;;;;;;349772;28;1004;-56
2023/10/04 00:46:00;;;;;;;8.82;5.22;;;23.70;49.70;;;;;;349824;28;1059;-57
2023/10/04 00:46:11;;;;;;;9.38;5.43;;;23.60;49.70;;;;;;349807;28;1655;-57
2023/10/04 00:46:22;;;;;;;8.55;5.57;;;23.60;49.70;;;;;;349717;28;1115;-56
2023/10/04 00:46:40;;;;;;;8.10;5.50;;;23.70;49.70;;;;;;349885;28;1040;-56
2023/10/04 00:46:51;;;;;;;8.35;5.13;;;23.60;49.70;;;;;;349733;28;1221;-56
2023/10/04 00:47:05;;;;;;;9.40;5.13;;;23.70;49.80;;;;;;349865;28;1102;-57
2023/10/04 00:47:16;;;;;;;9.32;5.20;;;23.70;49.90;;;;;;349864;28;1140;-57
2023/10/04 00:47:27;;;;;;;9.02;5.22;;;23.60;49.90;;;;;;349741;28;973;-57
2023/10/04 00:47:43;;;;;;;10.23;5.45;;;23.60;49.90;;;;;;349887;28;848;-57
2023/10/04 00:47:57;;;;;;;10.50;5.65;;;23.60;49.90;;;;;;349824;28;983;-57
2023/10/04 00:48:13;;;;;;;9.13;5.57;;;23.60;49.90;;;;;;349703;28;1997;-56
2023/10/04 00:48:29;;;;;;;9.05;5.30;;;23.60;49.80;;;;;;349836;28;928;-56
2023/10/04 00:48:40;;;;;;;8.75;5.00;;;23.60;49.80;;;;;;349846;28;1067;-57
2023/10/04 00:48:53;;;;;;;8.68;5.10;;;23.60;49.80;;;;;;349850;28;912;-56
2023/10/04 00:49:05;;;;;;;8.34;5.34;;;23.60;49.80;;;;;;349729;28;1000;-56
2023/10/04 00:49:15;;;;;;;9.15;5.35;;;23.60;49.80;;;;;;349779;28;1122;-58
2023/10/04 00:49:26;;;;;;;9.50;5.10;;;23.60;49.80;;;;;;349809;28;1216;-58
2023/10/04 00:49:37;;;;;;;9.85;5.28;;;23.60;49.80;;;;;;349748;28;1059;-57
2023/10/04 00:49:52;;;;;;;9.60;5.60;;;23.60;49.70;;;;;;349782;28;1083;-57
2023/10/04 00:50:14;;;;;;;9.50;5.60;;;23.60;49.80;;;;;;349774;28;1015;-57
2023/10/04 00:50:32;;;;;;;8.75;5.00;;;23.60;49.80;;;;;;349783;28;1224;-57
2023/10/04 00:50:43;;;;;;;7.90;4.95;;;23.60;49.80;;;;;;349683;28;1511;-57
2023/10/04 00:50:53;;;;;;;7.95;5.15;;;23.60;49.80;;;;;;349859;28;1043;-57
2023/10/04 00:51:06;;;;;;;8.20;5.32;;;23.60;49.90;;;;;;349732;28;1177;-57
2023/10/04 00:51:22;;;;;;;7.68;5.18;;;23.60;49.90;;;;;;349804;28;1433;-57
2023/10/04 00:51:36;;;;;;;8.23;5.20;;;23.60;50.20;;;;;;349782;28;1012;-56
2023/10/04 00:51:47;;;;;;;7.97;5.25;;;23.60;50.40;;;;;;349761;28;1185;-57
2023/10/04 00:52:00;;;;;;;9.80;5.38;;;23.60;50.30;;;;;;349752;28;1050;-56
2023/10/04 00:52:11;;;;;;;10.38;5.35;;;23.60;50.20;;;;;;349796;28;1220;-56
2023/10/04 00:52:22;;;;;;;9.02;5.30;;;23.60;50.10;;;;;;349897;28;826;-58
2023/10/04 00:52:33;;;;;;;6.97;5.18;;;23.60;50.10;;;;;;349770;28;886;-56
2023/10/04 00:52:51;;;;;;;7.82;5.40;;;23.60;50.00;;;;;;349818;28;1086;-56
2023/10/04 00:53:08;;;;;;;11.55;5.80;;;23.60;50.10;;;;;;349757;28;1035;-57
2023/10/04 00:53:22;;;;;;;12.07;5.88;;;23.60;50.00;;;;;;349805;28;975;-57
2023/10/04 00:53:34;;;;;;;9.35;5.55;;;23.60;50.00;;;;;;349733;28;1059;-57
2023/10/04 00:53:46;;;;;;;9.15;5.30;;;23.60;50.00;;;;;;349874;28;1023;-57
2023/10/04 00:53:56;;;;;;;6.82;5.26;;;23.60;50.00;;;;;;349798;28;1106;-56
2023/10/04 00:54:10;;;;;;;8.50;5.43;;;23.60;50.00;;;;;;349792;28;1020;-56
2023/10/04 00:54:20;;;;;;;8.60;5.38;;;23.60;50.10;;;;;;349796;28;1078;-57
2023/10/04 00:54:31;;;;;;;9.32;5.40;;;23.60;50.00;;;;;;349827;28;1000;-57
2023/10/04 00:54:42;;;;;;;8.75;5.60;;;23.60;50.10;;;;;;349781;28;899;-57
2023/10/04 00:54:54;;;;;;;10.07;5.60;;;23.60;50.10;;;;;;349845;28;718;-57
2023/10/04 00:55:06;;;;;;;12.30;5.57;;;23.60;50.10;;;;;;349790;28;1314;-57
2023/10/04 00:55:19;;;;;;;10.55;5.20;;;23.60;50.10;;;;;;349763;28;1018;-57
2023/10/04 00:55:31;;;;;;;8.02;4.97;;;23.60;50.00;;;;;;349839;28;1044;-57
2023/10/04 00:55:44;;;;;;;8.75;5.00;;;23.60;50.00;;;;;;349830;28;848;-57
2023/10/04 00:55:56;;;;;;;9.25;5.30;;;23.60;50.00;;;;;;349788;28;1088;-58
2023/10/04 00:56:12;;;;;;;8.35;5.10;;;23.60;50.10;;;;;;349880;28;1019;-57
2023/10/04 00:56:24;;;;;;;8.45;5.22;;;23.60;50.10;;;;;;349793;28;1047;-57
2023/10/04 00:56:40;;;;;;;10.40;5.55;;;23.60;50.10;;;;;;349732;28;975;-57
2023/10/04 00:56:52;;;;;;;10.07;5.60;;;23.60;50.10;;;;;;349896;28;737;-57
2023/10/04 00:57:04;;;;;;;8.32;5.35;;;23.60;50.10;;;;;;349839;28;992;-57
2023/10/04 00:57:15;;;;;;;8.65;5.20;;;23.60;50.00;;;;;;349715;28;910;-55
2023/10/04 00:57:26;;;;;;;8.70;5.30;;;23.60;50.00;;;;;;349871;28;1828;-55
2023/10/04 00:57:37;;;;;;;10.40;5.25;;;23.60;50.10;;;;;;349852;28;988;-56
2023/10/04 00:57:51;;;;;;;9.20;5.13;;;23.60;50.10;;;;;;349708;28;1102;-57
2023/10/04 00:58:05;;;;;;;8.90;4.90;;;23.60;50.00;;;;;;349845;28;1071;-56
2023/10/04 00:58:19;;;;;;;7.07;4.80;;;23.60;50.00;;;;;;349780;28;1043;-57
2023/10/04 00:58:30;;;;;;;7.10;5.13;;;23.60;50.00;;;;;;349769;28;1044;-57
2023/10/04 00:58:42;;;;;;;7.43;5.35;;;23.60;50.00;;;;;;349859;28;888;-57
2023/10/04 00:58:55;;;;;;;7.95;5.57;;;23.60;50.10;;;;;;349823;28;987;-57
2023/10/04 00:59:07;;;;;;;8.90;5.28;;;23.60;50.10;;;;;;349725;28;1051;-57
2023/10/04 00:59:18;;;;;;;9.98;5.10;;;23.60;50.10;;;;;;349734;28;1558;-57
2023/10/04 00:59:28;;;;;;;11.23;5.30;;;23.60;50.10;;;;;;349671;28;1171;-56
2023/10/04 00:59:42;;;;;;;10.98;5.38;;;23.60;50.10;;;;;;349859;28;774;-57
2023/10/04 00:59:53;;;;;;;9.40;5.20;;;23.60;50.10;;;;;;349684;28;1391;-56
2023/10/04 01:00:09;;;;;;;9.03;5.23;;;23.50;50.20;;;;;;349812;28;1106;-56
2023/10/04 01:00:20;;;;;;;8.85;5.20;;;23.60;50.10;;;;;;349795;28;1221;-57
2023/10/04 01:00:31;;;;;;;7.53;5.05;;;23.50;50.10;;;;;;349810;28;1220;-56
2023/10/04 01:00:43;;;;;;;7.30;5.32;;;23.50;50.10;;;;;;349748;28;956;-56
2023/10/04 01:00:54;;;;;;;7.95;5.30;;;23.60;50.10;;;;;;349780;28;1126;-57
2023/10/04 01:01:06;;;;;;;9.00;5.47;;;23.50;50.20;;;;;;349671;28;1307;-56
2023/10/04 01:01:17;;;;;;;7.38;5.15;;;23.60;50.20;;;;;;349860;28;864;-57
2023/10/04 01:01:27;;;;;;;9.33;5.47;;;23.60;50.20;;;;;;349687;28;1119;-56
2023/10/04 01:01:41;;;;;;;10.50;5.70;;;23.60;50.20;;;;;;349902;28;1027;-57
2023/10/04 01:01:52;;;;;;;9.85;5.40;;;23.60;50.20;;;;;;349769;28;891;-57
2023/10/04 01:02:03;;;;;;;9.68;5.05;;;23.60;50.20;;;;;;349705;28;1043;-57
2023/10/04 01:02:14;;;;;;;7.70;4.97;;;23.60;50.20;;;;;;349748;28;1001;-57
2023/10/04 01:02:27;;;;;;;7.70;5.28;;;23.60;50.30;;;;;;349801;28;1210;-57
2023/10/04 01:02:39;;;;;;;9.20;5.75;;;23.60;50.30;;;;;;349736;28;1039;-56
2023/10/04 01:02:50;;;;;;;13.20;5.80;;;23.50;50.30;;;;;;349863;28;730;-57
2023/10/04 01:03:01;;;;;;;13.88;5.50;;;23.50;50.40;;;;;;349774;28;984;-56
2023/10/04 01:03:14;;;;;;;13.77;5.43;;;23.60;50.30;;;;;;349796;28;864;-56
2023/10/04 01:03:30;;;;;;;10.68;5.43;;;23.60;50.30;;;;;;349712;28;1135;-57
2023/10/04 01:03:41;;;;;;;9.13;5.38;;;23.60;50.20;;;;;;349804;28;1103;-55
2023/10/04 01:03:52;;;;;;;8.48;5.53;;;23.50;50.20;;;;;;349727;28;1079;-56
2023/10/04 01:04:05;;;;;;;8.20;5.50;;;23.50;50.30;;;;;;349828;28;1032;-57